sensor_id;sensor_type;location;lat;lon;timestamp;P1;durP1;ratioP1;P2;durP2;ratioP2
10882;SDS011;5494;51.796;10.952;2022-08-27T00:02:19;26.73;;;18.47;;
10882;SDS011;5494;51.796;10.952;2022-08-27T00:04:47;21.67;;;18.13;;
10882;SDS011;5494;51.796;10.952;2022-08-27T00:07:16;23.13;;;17.23;;
10882;SDS011;5494;51.796;10.952;2022-08-27T00:09:44;20.07;;;16.03;;
10882;SDS011;5494;51.796;10.952;2022-08-27T00:12:14;19.93;;;15.80;;
10882;SDS011;5494;51.796;10.952;2022-08-27T00:14:43;17.70;;;13.93;;
10882;SDS011;5494;51.796;10.952;2022-08-27T00:17:12;16.87;;;13.50;;
10882;SDS011;5494;51.796;10.952;2022-08-27T00:19:41;17.47;;;13.47;;
10882;SDS011;5494;51.796;10.952;2022-08-27T00:22:09;13.70;;;11.90;;
10882;SDS011;5494;51.796;10.952;2022-08-27T00:24:39;15.17;;;11.63;;
10882;SDS011;5494;51.796;10.952;2022-08-27T00:27:16;16.23;;;11.67;;
10882;SDS011;5494;51.796;10.952;2022-08-27T00:29:44;16.20;;;11.87;;
10882;SDS011;5494;51.796;10.952;2022-08-27T00:32:14;13.33;;;11.87;;
10882;SDS011;5494;51.796;10.952;2022-08-27T00:34:43;15.73;;;12.43;;
10882;SDS011;5494;51.796;10.952;2022-08-27T00:37:12;16.27;;;12.50;;
10882;SDS011;5494;51.796;10.952;2022-08-27T00:39:41;16.83;;;12.30;;
10882;SDS011;5494;51.796;10.952;2022-08-27T00:42:10;16.27;;;12.40;;
10882;SDS011;5494;51.796;10.952;2022-08-27T00:44:40;18.03;;;12.50;;
10882;SDS011;5494;51.796;10.952;2022-08-27T00:47:10;16.40;;;12.63;;
10882;SDS011;5494;51.796;10.952;2022-08-27T00:49:48;19.93;;;13.50;;
10882;SDS011;5494;51.796;10.952;2022-08-27T00:52:23;18.20;;;13.40;;
10882;SDS011;5494;51.796;10.952;2022-08-27T00:54:57;21.10;;;14.43;;
10882;SDS011;5494;51.796;10.952;2022-08-27T00:57:31;21.87;;;15.93;;
10882;SDS011;5494;51.796;10.952;2022-08-27T01:00:07;21.23;;;15.10;;
10882;SDS011;5494;51.796;10.952;2022-08-27T01:02:43;19.53;;;15.70;;
10882;SDS011;5494;51.796;10.952;2022-08-27T01:05:14;18.23;;;14.97;;
10882;SDS011;5494;51.796;10.952;2022-08-27T01:07:48;20.47;;;15.07;;
10882;SDS011;5494;51.796;10.952;2022-08-27T01:10:24;22.77;;;16.47;;
10882;SDS011;5494;51.796;10.952;2022-08-27T01:12:55;26.80;;;16.30;;
10882;SDS011;5494;51.796;10.952;2022-08-27T01:15:27;24.53;;;18.37;;
10882;SDS011;5494;51.796;10.952;2022-08-27T01:17:57;23.70;;;17.73;;
10882;SDS011;5494;51.796;10.952;2022-08-27T01:20:31;24.27;;;17.80;;
10882;SDS011;5494;51.796;10.952;2022-08-27T01:23:11;26.47;;;18.03;;
10882;SDS011;5494;51.796;10.952;2022-08-27T01:25:51;26.03;;;19.13;;
10882;SDS011;5494;51.796;10.952;2022-08-27T01:28:19;31.47;;;21.30;;
10882;SDS011;5494;51.796;10.952;2022-08-27T01:31:01;33.63;;;23.57;;
10882;SDS011;5494;51.796;10.952;2022-08-27T01:33:32;36.23;;;23.80;;
10882;SDS011;5494;51.796;10.952;2022-08-27T01:36:02;37.97;;;26.23;;
10882;SDS011;5494;51.796;10.952;2022-08-27T01:38:31;39.13;;;27.60;;
10882;SDS011;5494;51.796;10.952;2022-08-27T01:41:03;42.03;;;28.97;;
10882;SDS011;5494;51.796;10.952;2022-08-27T01:43:31;51.43;;;29.93;;
10882;SDS011;5494;51.796;10.952;2022-08-27T01:46:00;48.90;;;32.73;;
10882;SDS011;5494;51.796;10.952;2022-08-27T01:48:28;51.93;;;34.40;;
10882;SDS011;5494;51.796;10.952;2022-08-27T01:50:56;50.40;;;33.67;;
10882;SDS011;5494;51.796;10.952;2022-08-27T01:53:25;49.10;;;33.53;;
10882;SDS011;5494;51.796;10.952;2022-08-27T01:55:54;51.87;;;34.47;;
10882;SDS011;5494;51.796;10.952;2022-08-27T01:58:26;52.37;;;35.23;;
10882;SDS011;5494;51.796;10.952;2022-08-27T02:00:59;52.60;;;34.03;;
10882;SDS011;5494;51.796;10.952;2022-08-27T02:03:32;56.07;;;36.30;;
10882;SDS011;5494;51.796;10.952;2022-08-27T02:06:03;53.20;;;35.67;;
10882;SDS011;5494;51.796;10.952;2022-08-27T02:08:35;53.60;;;34.23;;
10882;SDS011;5494;51.796;10.952;2022-08-27T02:11:04;50.63;;;34.17;;
10882;SDS011;5494;51.796;10.952;2022-08-27T02:13:36;54.70;;;32.60;;
10882;SDS011;5494;51.796;10.952;2022-08-27T02:16:04;49.93;;;33.63;;
10882;SDS011;5494;51.796;10.952;2022-08-27T02:18:33;52.23;;;33.50;;
10882;SDS011;5494;51.796;10.952;2022-08-27T02:21:07;45.57;;;31.20;;
10882;SDS011;5494;51.796;10.952;2022-08-27T02:23:36;50.13;;;32.27;;
10882;SDS011;5494;51.796;10.952;2022-08-27T02:26:05;45.23;;;30.80;;
10882;SDS011;5494;51.796;10.952;2022-08-27T02:28:35;45.57;;;31.23;;
10882;SDS011;5494;51.796;10.952;2022-08-27T02:31:04;49.70;;;31.73;;
10882;SDS011;5494;51.796;10.952;2022-08-27T02:33:33;45.83;;;31.13;;
10882;SDS011;5494;51.796;10.952;2022-08-27T02:36:02;48.87;;;30.30;;
10882;SDS011;5494;51.796;10.952;2022-08-27T02:38:31;49.60;;;30.53;;
10882;SDS011;5494;51.796;10.952;2022-08-27T02:41:00;45.23;;;30.17;;
10882;SDS011;5494;51.796;10.952;2022-08-27T02:43:28;44.90;;;29.57;;
10882;SDS011;5494;51.796;10.952;2022-08-27T02:45:58;45.63;;;29.73;;
10882;SDS011;5494;51.796;10.952;2022-08-27T02:48:27;46.57;;;29.20;;
10882;SDS011;5494;51.796;10.952;2022-08-27T02:50:56;42.57;;;29.03;;
10882;SDS011;5494;51.796;10.952;2022-08-27T02:53:24;42.97;;;27.97;;
10882;SDS011;5494;51.796;10.952;2022-08-27T02:55:54;48.63;;;28.90;;
10882;SDS011;5494;51.796;10.952;2022-08-27T02:58:22;43.07;;;28.47;;
10882;SDS011;5494;51.796;10.952;2022-08-27T03:00:51;42.93;;;27.27;;
10882;SDS011;5494;51.796;10.952;2022-08-27T03:03:21;38.10;;;27.07;;
10882;SDS011;5494;51.796;10.952;2022-08-27T03:05:49;41.57;;;27.17;;
10882;SDS011;5494;51.796;10.952;2022-08-27T03:08:18;39.97;;;27.53;;
10882;SDS011;5494;51.796;10.952;2022-08-27T03:10:47;39.20;;;27.93;;
10882;SDS011;5494;51.796;10.952;2022-08-27T03:13:16;45.03;;;26.83;;
10882;SDS011;5494;51.796;10.952;2022-08-27T03:15:45;42.70;;;27.83;;
10882;SDS011;5494;51.796;10.952;2022-08-27T03:18:15;40.10;;;25.43;;
10882;SDS011;5494;51.796;10.952;2022-08-27T03:20:49;43.37;;;28.07;;
10882;SDS011;5494;51.796;10.952;2022-08-27T03:23:22;44.40;;;26.57;;
10882;SDS011;5494;51.796;10.952;2022-08-27T03:25:53;42.07;;;27.33;;
10882;SDS011;5494;51.796;10.952;2022-08-27T03:28:26;40.77;;;26.63;;
10882;SDS011;5494;51.796;10.952;2022-08-27T03:30:58;43.70;;;26.70;;
10882;SDS011;5494;51.796;10.952;2022-08-27T03:33:29;41.40;;;27.03;;
10882;SDS011;5494;51.796;10.952;2022-08-27T03:36:00;37.77;;;27.07;;
10882;SDS011;5494;51.796;10.952;2022-08-27T03:38:30;40.07;;;25.80;;
10882;SDS011;5494;51.796;10.952;2022-08-27T03:40:59;40.33;;;26.20;;
10882;SDS011;5494;51.796;10.952;2022-08-27T03:43:28;41.10;;;27.37;;
10882;SDS011;5494;51.796;10.952;2022-08-27T03:45:57;44.27;;;28.13;;
10882;SDS011;5494;51.796;10.952;2022-08-27T03:48:28;41.03;;;26.67;;
10882;SDS011;5494;51.796;10.952;2022-08-27T03:50:57;48.80;;;27.73;;
10882;SDS011;5494;51.796;10.952;2022-08-27T03:53:28;42.03;;;27.30;;
10882;SDS011;5494;51.796;10.952;2022-08-27T03:55:56;43.73;;;28.53;;
10882;SDS011;5494;51.796;10.952;2022-08-27T03:58:24;43.53;;;27.63;;
10882;SDS011;5494;51.796;10.952;2022-08-27T04:00:53;40.30;;;25.73;;
10882;SDS011;5494;51.796;10.952;2022-08-27T04:03:21;38.73;;;24.13;;
10882;SDS011;5494;51.796;10.952;2022-08-27T04:05:51;41.80;;;26.37;;
10882;SDS011;5494;51.796;10.952;2022-08-27T04:08:21;41.13;;;25.10;;
10882;SDS011;5494;51.796;10.952;2022-08-27T04:10:52;39.33;;;24.43;;
10882;SDS011;5494;51.796;10.952;2022-08-27T04:13:21;39.20;;;23.70;;
10882;SDS011;5494;51.796;10.952;2022-08-27T04:15:51;41.07;;;23.50;;
10882;SDS011;5494;51.796;10.952;2022-08-27T04:18:22;36.13;;;24.30;;
10882;SDS011;5494;51.796;10.952;2022-08-27T04:20:50;37.23;;;23.10;;
10882;SDS011;5494;51.796;10.952;2022-08-27T04:23:19;38.20;;;23.87;;
10882;SDS011;5494;51.796;10.952;2022-08-27T04:25:47;37.23;;;23.80;;
10882;SDS011;5494;51.796;10.952;2022-08-27T04:28:18;34.83;;;23.73;;
10882;SDS011;5494;51.796;10.952;2022-08-27T04:30:47;36.63;;;23.93;;
10882;SDS011;5494;51.796;10.952;2022-08-27T04:33:15;41.90;;;26.33;;
10882;SDS011;5494;51.796;10.952;2022-08-27T04:35:44;38.47;;;24.90;;
10882;SDS011;5494;51.796;10.952;2022-08-27T04:38:12;39.63;;;26.20;;
10882;SDS011;5494;51.796;10.952;2022-08-27T04:40:41;42.00;;;25.63;;
10882;SDS011;5494;51.796;10.952;2022-08-27T04:43:28;41.47;;;26.03;;
10882;SDS011;5494;51.796;10.952;2022-08-27T04:45:57;41.50;;;25.37;;
10882;SDS011;5494;51.796;10.952;2022-08-27T04:48:26;39.70;;;26.07;;
10882;SDS011;5494;51.796;10.952;2022-08-27T04:50:54;48.43;;;24.90;;
10882;SDS011;5494;51.796;10.952;2022-08-27T04:53:23;44.53;;;26.63;;
10882;SDS011;5494;51.796;10.952;2022-08-27T04:55:52;43.20;;;25.67;;
10882;SDS011;5494;51.796;10.952;2022-08-27T04:58:23;36.47;;;23.87;;
10882;SDS011;5494;51.796;10.952;2022-08-27T05:00:55;40.90;;;25.27;;
10882;SDS011;5494;51.796;10.952;2022-08-27T05:03:26;37.17;;;24.77;;
10882;SDS011;5494;51.796;10.952;2022-08-27T05:05:58;34.80;;;21.97;;
10882;SDS011;5494;51.796;10.952;2022-08-27T05:08:29;37.80;;;22.83;;
10882;SDS011;5494;51.796;10.952;2022-08-27T05:10:58;32.17;;;22.10;;
10882;SDS011;5494;51.796;10.952;2022-08-27T05:13:27;30.90;;;22.00;;
10882;SDS011;5494;51.796;10.952;2022-08-27T05:15:58;27.47;;;19.57;;
10882;SDS011;5494;51.796;10.952;2022-08-27T05:18:29;29.10;;;20.73;;
10882;SDS011;5494;51.796;10.952;2022-08-27T05:21:17;29.77;;;19.70;;
10882;SDS011;5494;51.796;10.952;2022-08-27T05:23:50;30.33;;;18.83;;
10882;SDS011;5494;51.796;10.952;2022-08-27T05:26:20;21.67;;;16.50;;
10882;SDS011;5494;51.796;10.952;2022-08-27T05:28:49;21.70;;;15.67;;
10882;SDS011;5494;51.796;10.952;2022-08-27T05:31:19;19.23;;;14.50;;
10882;SDS011;5494;51.796;10.952;2022-08-27T05:33:49;19.63;;;13.53;;
10882;SDS011;5494;51.796;10.952;2022-08-27T05:36:19;16.47;;;12.53;;
10882;SDS011;5494;51.796;10.952;2022-08-27T05:38:51;16.10;;;12.23;;
10882;SDS011;5494;51.796;10.952;2022-08-27T05:41:23;17.60;;;11.90;;
10882;SDS011;5494;51.796;10.952;2022-08-27T05:44:01;16.30;;;12.90;;
10882;SDS011;5494;51.796;10.952;2022-08-27T05:46:56;20.57;;;14.37;;
10882;SDS011;5494;51.796;10.952;2022-08-27T05:49:24;21.77;;;14.60;;
10882;SDS011;5494;51.796;10.952;2022-08-27T05:51:53;23.57;;;17.40;;
10882;SDS011;5494;51.796;10.952;2022-08-27T05:54:21;25.87;;;17.60;;
10882;SDS011;5494;51.796;10.952;2022-08-27T05:56:49;24.97;;;19.00;;
10882;SDS011;5494;51.796;10.952;2022-08-27T05:59:18;27.87;;;18.53;;
10882;SDS011;5494;51.796;10.952;2022-08-27T06:02:05;26.80;;;19.63;;
10882;SDS011;5494;51.796;10.952;2022-08-27T06:04:34;30.87;;;19.73;;
10882;SDS011;5494;51.796;10.952;2022-08-27T06:07:03;29.03;;;21.23;;
10882;SDS011;5494;51.796;10.952;2022-08-27T06:09:34;34.03;;;22.77;;
10882;SDS011;5494;51.796;10.952;2022-08-27T06:12:04;34.13;;;23.50;;
10882;SDS011;5494;51.796;10.952;2022-08-27T06:14:34;42.53;;;25.43;;
10882;SDS011;5494;51.796;10.952;2022-08-27T06:17:05;34.03;;;24.33;;
10882;SDS011;5494;51.796;10.952;2022-08-27T06:19:33;35.03;;;25.00;;
10882;SDS011;5494;51.796;10.952;2022-08-27T06:22:02;39.73;;;26.93;;
10882;SDS011;5494;51.796;10.952;2022-08-27T06:24:37;39.27;;;27.13;;
10882;SDS011;5494;51.796;10.952;2022-08-27T06:27:08;41.53;;;27.80;;
10882;SDS011;5494;51.796;10.952;2022-08-27T06:29:40;44.80;;;29.50;;
10882;SDS011;5494;51.796;10.952;2022-08-27T06:32:10;43.27;;;28.47;;
10882;SDS011;5494;51.796;10.952;2022-08-27T06:34:40;40.50;;;26.70;;
10882;SDS011;5494;51.796;10.952;2022-08-27T06:37:09;31.47;;;22.23;;
10882;SDS011;5494;51.796;10.952;2022-08-27T06:39:38;30.93;;;22.40;;
10882;SDS011;5494;51.796;10.952;2022-08-27T06:42:08;28.17;;;19.13;;
10882;SDS011;5494;51.796;10.952;2022-08-27T06:44:38;22.13;;;15.17;;
10882;SDS011;5494;51.796;10.952;2022-08-27T06:47:08;18.37;;;14.60;;
10882;SDS011;5494;51.796;10.952;2022-08-27T06:49:38;18.33;;;12.97;;
10882;SDS011;5494;51.796;10.952;2022-08-27T06:52:12;17.00;;;12.33;;
10882;SDS011;5494;51.796;10.952;2022-08-27T06:54:41;16.43;;;12.57;;
10882;SDS011;5494;51.796;10.952;2022-08-27T06:57:10;18.07;;;12.63;;
10882;SDS011;5494;51.796;10.952;2022-08-27T06:59:38;15.43;;;11.73;;
10882;SDS011;5494;51.796;10.952;2022-08-27T07:02:07;16.17;;;11.77;;
10882;SDS011;5494;51.796;10.952;2022-08-27T07:04:37;15.87;;;11.70;;
10882;SDS011;5494;51.796;10.952;2022-08-27T07:07:06;17.63;;;10.63;;
10882;SDS011;5494;51.796;10.952;2022-08-27T07:09:37;16.43;;;11.83;;
10882;SDS011;5494;51.796;10.952;2022-08-27T07:12:06;16.80;;;11.83;;
10882;SDS011;5494;51.796;10.952;2022-08-27T07:14:35;18.30;;;11.67;;
10882;SDS011;5494;51.796;10.952;2022-08-27T07:17:04;19.30;;;12.53;;
10882;SDS011;5494;51.796;10.952;2022-08-27T07:19:38;20.33;;;11.77;;
10882;SDS011;5494;51.796;10.952;2022-08-27T07:22:07;14.67;;;10.70;;
10882;SDS011;5494;51.796;10.952;2022-08-27T07:24:36;16.27;;;11.30;;
10882;SDS011;5494;51.796;10.952;2022-08-27T07:27:06;15.53;;;11.07;;
10882;SDS011;5494;51.796;10.952;2022-08-27T07:29:35;11.53;;;9.47;;
10882;SDS011;5494;51.796;10.952;2022-08-27T07:32:04;11.47;;;8.80;;
10882;SDS011;5494;51.796;10.952;2022-08-27T07:34:33;12.30;;;7.97;;
10882;SDS011;5494;51.796;10.952;2022-08-27T07:37:03;10.80;;;7.77;;
10882;SDS011;5494;51.796;10.952;2022-08-27T07:39:31;12.23;;;9.27;;
10882;SDS011;5494;51.796;10.952;2022-08-27T07:42:00;17.10;;;9.33;;
10882;SDS011;5494;51.796;10.952;2022-08-27T07:44:46;13.37;;;10.60;;
10882;SDS011;5494;51.796;10.952;2022-08-27T07:47:16;16.77;;;11.47;;
10882;SDS011;5494;51.796;10.952;2022-08-27T07:49:44;15.27;;;10.80;;
10882;SDS011;5494;51.796;10.952;2022-08-27T07:52:15;19.57;;;14.27;;
10882;SDS011;5494;51.796;10.952;2022-08-27T07:54:47;18.30;;;12.70;;
10882;SDS011;5494;51.796;10.952;2022-08-27T07:57:16;17.87;;;12.53;;
10882;SDS011;5494;51.796;10.952;2022-08-27T07:59:44;18.13;;;13.50;;
10882;SDS011;5494;51.796;10.952;2022-08-27T08:02:13;19.10;;;11.97;;
10882;SDS011;5494;51.796;10.952;2022-08-27T08:04:42;20.13;;;12.43;;
10882;SDS011;5494;51.796;10.952;2022-08-27T08:07:11;16.47;;;12.43;;
10882;SDS011;5494;51.796;10.952;2022-08-27T08:09:40;19.87;;;12.30;;
10882;SDS011;5494;51.796;10.952;2022-08-27T08:12:09;17.07;;;12.93;;
10882;SDS011;5494;51.796;10.952;2022-08-27T08:14:37;19.27;;;12.40;;
10882;SDS011;5494;51.796;10.952;2022-08-27T08:17:06;19.90;;;13.23;;
10882;SDS011;5494;51.796;10.952;2022-08-27T08:19:36;23.07;;;12.93;;
10882;SDS011;5494;51.796;10.952;2022-08-27T08:22:06;17.97;;;12.77;;
10882;SDS011;5494;51.796;10.952;2022-08-27T08:24:35;18.43;;;11.90;;
10882;SDS011;5494;51.796;10.952;2022-08-27T08:27:05;19.03;;;12.40;;
10882;SDS011;5494;51.796;10.952;2022-08-27T08:29:34;15.33;;;12.20;;
10882;SDS011;5494;51.796;10.952;2022-08-27T08:32:04;17.07;;;12.23;;
10882;SDS011;5494;51.796;10.952;2022-08-27T08:34:33;19.60;;;12.83;;
10882;SDS011;5494;51.796;10.952;2022-08-27T08:37:03;24.67;;;13.93;;
10882;SDS011;5494;51.796;10.952;2022-08-27T08:39:32;19.03;;;13.83;;
10882;SDS011;5494;51.796;10.952;2022-08-27T08:42:04;16.60;;;12.93;;
10882;SDS011;5494;51.796;10.952;2022-08-27T08:44:50;20.10;;;12.93;;
10882;SDS011;5494;51.796;10.952;2022-08-27T08:47:22;15.80;;;12.97;;
10882;SDS011;5494;51.796;10.952;2022-08-27T08:49:58;17.23;;;13.40;;
10882;SDS011;5494;51.796;10.952;2022-08-27T08:52:37;21.47;;;13.67;;
10882;SDS011;5494;51.796;10.952;2022-08-27T08:55:24;21.83;;;14.20;;
10882;SDS011;5494;51.796;10.952;2022-08-27T08:58:10;19.23;;;13.13;;
10882;SDS011;5494;51.796;10.952;2022-08-27T09:00:47;22.77;;;13.93;;
10882;SDS011;5494;51.796;10.952;2022-08-27T09:03:21;19.93;;;13.53;;
10882;SDS011;5494;51.796;10.952;2022-08-27T09:05:52;21.20;;;13.67;;
10882;SDS011;5494;51.796;10.952;2022-08-27T09:08:30;19.33;;;13.97;;
10882;SDS011;5494;51.796;10.952;2022-08-27T09:11:09;19.83;;;13.30;;
10882;SDS011;5494;51.796;10.952;2022-08-27T09:13:56;18.90;;;13.67;;
10882;SDS011;5494;51.796;10.952;2022-08-27T09:16:30;20.63;;;13.27;;
10882;SDS011;5494;51.796;10.952;2022-08-27T09:19:00;17.63;;;13.17;;
10882;SDS011;5494;51.796;10.952;2022-08-27T09:21:35;18.37;;;13.27;;
10882;SDS011;5494;51.796;10.952;2022-08-27T09:24:17;20.93;;;13.23;;
10882;SDS011;5494;51.796;10.952;2022-08-27T09:27:02;20.77;;;13.10;;
10882;SDS011;5494;51.796;10.952;2022-08-27T09:29:32;18.13;;;12.40;;
10882;SDS011;5494;51.796;10.952;2022-08-27T09:32:04;17.83;;;12.80;;
10882;SDS011;5494;51.796;10.952;2022-08-27T09:34:36;20.10;;;12.83;;
10882;SDS011;5494;51.796;10.952;2022-08-27T09:37:09;16.67;;;12.17;;
10882;SDS011;5494;51.796;10.952;2022-08-27T09:39:46;17.47;;;12.67;;
10882;SDS011;5494;51.796;10.952;2022-08-27T09:42:22;21.80;;;12.70;;
10882;SDS011;5494;51.796;10.952;2022-08-27T09:45:00;19.50;;;12.53;;
10882;SDS011;5494;51.796;10.952;2022-08-27T09:47:41;19.33;;;12.77;;
10882;SDS011;5494;51.796;10.952;2022-08-27T09:50:14;19.13;;;12.53;;
10882;SDS011;5494;51.796;10.952;2022-08-27T09:52:48;22.13;;;12.27;;
10882;SDS011;5494;51.796;10.952;2022-08-27T09:55:24;19.30;;;12.37;;
10882;SDS011;5494;51.796;10.952;2022-08-27T09:58:06;17.63;;;11.63;;
10882;SDS011;5494;51.796;10.952;2022-08-27T10:00:48;20.80;;;12.37;;
10882;SDS011;5494;51.796;10.952;2022-08-27T10:03:28;15.20;;;11.10;;
10882;SDS011;5494;51.796;10.952;2022-08-27T10:05:59;12.90;;;10.27;;
10882;SDS011;5494;51.796;10.952;2022-08-27T10:08:29;14.13;;;9.73;;
10882;SDS011;5494;51.796;10.952;2022-08-27T10:11:09;14.77;;;9.37;;
10882;SDS011;5494;51.796;10.952;2022-08-27T10:13:51;13.47;;;9.60;;
10882;SDS011;5494;51.796;10.952;2022-08-27T10:16:35;15.57;;;10.70;;
10882;SDS011;5494;51.796;10.952;2022-08-27T10:19:42;18.07;;;9.80;;
10882;SDS011;5494;51.796;10.952;2022-08-27T10:22:31;16.50;;;10.73;;
10882;SDS011;5494;51.796;10.952;2022-08-27T10:25:24;14.17;;;9.07;;
10882;SDS011;5494;51.796;10.952;2022-08-27T10:28:09;11.87;;;9.10;;
10882;SDS011;5494;51.796;10.952;2022-08-27T10:31:11;11.00;;;9.00;;
10882;SDS011;5494;51.796;10.952;2022-08-27T10:34:02;9.20;;;6.83;;
10882;SDS011;5494;51.796;10.952;2022-08-27T10:36:50;10.20;;;6.60;;
10882;SDS011;5494;51.796;10.952;2022-08-27T10:42:38;6.90;;;5.83;;
10882;SDS011;5494;51.796;10.952;2022-08-27T10:45:25;10.27;;;6.10;;
10882;SDS011;5494;51.796;10.952;2022-08-27T10:48:10;7.63;;;6.00;;
10882;SDS011;5494;51.796;10.952;2022-08-27T10:50:55;7.67;;;5.73;;
10882;SDS011;5494;51.796;10.952;2022-08-27T10:53:35;5.93;;;5.43;;
10882;SDS011;5494;51.796;10.952;2022-08-27T10:56:15;9.00;;;6.23;;
10882;SDS011;5494;51.796;10.952;2022-08-27T10:58:58;9.87;;;7.50;;
10882;SDS011;5494;51.796;10.952;2022-08-27T11:01:39;11.00;;;8.10;;
10882;SDS011;5494;51.796;10.952;2022-08-27T11:04:19;13.63;;;8.37;;
10882;SDS011;5494;51.796;10.952;2022-08-27T11:06:54;12.30;;;8.57;;
10882;SDS011;5494;51.796;10.952;2022-08-27T11:09:29;16.27;;;9.83;;
10882;SDS011;5494;51.796;10.952;2022-08-27T11:12:07;14.67;;;10.67;;
10882;SDS011;5494;51.796;10.952;2022-08-27T11:14:44;16.87;;;10.37;;
10882;SDS011;5494;51.796;10.952;2022-08-27T11:17:19;16.00;;;10.83;;
10882;SDS011;5494;51.796;10.952;2022-08-27T11:20:02;17.17;;;10.53;;
10882;SDS011;5494;51.796;10.952;2022-08-27T11:22:39;17.80;;;12.00;;
10882;SDS011;5494;51.796;10.952;2022-08-27T11:25:17;15.60;;;12.33;;
10882;SDS011;5494;51.796;10.952;2022-08-27T11:28:06;16.13;;;11.83;;
10882;SDS011;5494;51.796;10.952;2022-08-27T11:30:40;18.30;;;12.93;;
10882;SDS011;5494;51.796;10.952;2022-08-27T11:33:23;20.47;;;13.10;;
10882;SDS011;5494;51.796;10.952;2022-08-27T11:36:13;17.30;;;12.17;;
10882;SDS011;5494;51.796;10.952;2022-08-27T11:39:04;22.90;;;13.07;;
10882;SDS011;5494;51.796;10.952;2022-08-27T11:41:50;17.87;;;12.33;;
10882;SDS011;5494;51.796;10.952;2022-08-27T11:44:33;20.03;;;13.47;;
10882;SDS011;5494;51.796;10.952;2022-08-27T11:47:10;15.90;;;12.73;;
10882;SDS011;5494;51.796;10.952;2022-08-27T11:49:46;17.43;;;14.20;;
10882;SDS011;5494;51.796;10.952;2022-08-27T11:52:22;20.60;;;13.20;;
10882;SDS011;5494;51.796;10.952;2022-08-27T11:55:06;16.73;;;13.47;;
10882;SDS011;5494;51.796;10.952;2022-08-27T11:57:41;17.57;;;12.47;;
10882;SDS011;5494;51.796;10.952;2022-08-27T12:00:13;17.03;;;12.33;;
10882;SDS011;5494;51.796;10.952;2022-08-27T12:02:57;18.97;;;13.00;;
10882;SDS011;5494;51.796;10.952;2022-08-27T12:05:34;18.17;;;13.80;;
10882;SDS011;5494;51.796;10.952;2022-08-27T12:08:11;19.53;;;13.67;;
10882;SDS011;5494;51.796;10.952;2022-08-27T12:10:53;19.00;;;13.47;;
10882;SDS011;5494;51.796;10.952;2022-08-27T12:13:44;18.67;;;14.13;;
10882;SDS011;5494;51.796;10.952;2022-08-27T12:16:26;15.77;;;13.20;;
10882;SDS011;5494;51.796;10.952;2022-08-27T12:19:10;17.93;;;13.50;;
10882;SDS011;5494;51.796;10.952;2022-08-27T12:22:00;18.83;;;13.43;;
10882;SDS011;5494;51.796;10.952;2022-08-27T12:24:48;16.93;;;12.90;;
10882;SDS011;5494;51.796;10.952;2022-08-27T12:27:28;18.13;;;13.60;;
10882;SDS011;5494;51.796;10.952;2022-08-27T12:30:17;16.43;;;13.70;;
10882;SDS011;5494;51.796;10.952;2022-08-27T12:32:49;15.47;;;12.80;;
10882;SDS011;5494;51.796;10.952;2022-08-27T12:35:21;17.27;;;12.53;;
10882;SDS011;5494;51.796;10.952;2022-08-27T12:38:04;20.87;;;12.60;;
10882;SDS011;5494;51.796;10.952;2022-08-27T12:40:45;15.60;;;12.53;;
10882;SDS011;5494;51.796;10.952;2022-08-27T12:43:20;16.10;;;12.17;;
10882;SDS011;5494;51.796;10.952;2022-08-27T12:45:51;18.93;;;12.33;;
10882;SDS011;5494;51.796;10.952;2022-08-27T12:48:28;15.77;;;12.50;;
10882;SDS011;5494;51.796;10.952;2022-08-27T12:51:15;13.63;;;11.23;;
10882;SDS011;5494;51.796;10.952;2022-08-27T12:53:50;15.73;;;12.63;;
10882;SDS011;5494;51.796;10.952;2022-08-27T12:56:38;13.37;;;11.60;;
10882;SDS011;5494;51.796;10.952;2022-08-27T12:59:32;15.40;;;12.10;;
10882;SDS011;5494;51.796;10.952;2022-08-27T13:02:22;15.37;;;11.87;;
10882;SDS011;5494;51.796;10.952;2022-08-27T13:05:36;14.93;;;13.00;;
10882;SDS011;5494;51.796;10.952;2022-08-27T13:08:16;16.60;;;13.57;;
10882;SDS011;5494;51.796;10.952;2022-08-27T13:10:48;16.53;;;12.43;;
10882;SDS011;5494;51.796;10.952;2022-08-27T13:13:18;16.70;;;12.53;;
10882;SDS011;5494;51.796;10.952;2022-08-27T13:15:51;15.53;;;12.60;;
10882;SDS011;5494;51.796;10.952;2022-08-27T13:18:22;17.73;;;13.30;;
10882;SDS011;5494;51.796;10.952;2022-08-27T13:21:00;20.37;;;14.50;;
10882;SDS011;5494;51.796;10.952;2022-08-27T13:23:36;20.53;;;12.67;;
10882;SDS011;5494;51.796;10.952;2022-08-27T13:26:12;16.13;;;12.60;;
10882;SDS011;5494;51.796;10.952;2022-08-27T13:28:41;16.83;;;12.83;;
10882;SDS011;5494;51.796;10.952;2022-08-27T13:31:11;16.33;;;12.97;;
10882;SDS011;5494;51.796;10.952;2022-08-27T13:33:42;17.70;;;12.77;;
10882;SDS011;5494;51.796;10.952;2022-08-27T13:36:12;16.77;;;11.60;;
10882;SDS011;5494;51.796;10.952;2022-08-27T13:38:42;12.13;;;10.57;;
10882;SDS011;5494;51.796;10.952;2022-08-27T13:41:18;13.00;;;11.13;;
10882;SDS011;5494;51.796;10.952;2022-08-27T13:43:56;14.13;;;10.63;;
10882;SDS011;5494;51.796;10.952;2022-08-27T13:46:40;12.43;;;10.93;;
10882;SDS011;5494;51.796;10.952;2022-08-27T13:49:16;11.67;;;10.00;;
10882;SDS011;5494;51.796;10.952;2022-08-27T13:51:49;13.30;;;10.63;;
10882;SDS011;5494;51.796;10.952;2022-08-27T13:54:27;13.80;;;9.70;;
10882;SDS011;5494;51.796;10.952;2022-08-27T13:57:00;13.57;;;10.10;;
10882;SDS011;5494;51.796;10.952;2022-08-27T13:59:36;11.13;;;9.97;;
10882;SDS011;5494;51.796;10.952;2022-08-27T14:02:21;11.20;;;10.03;;
10882;SDS011;5494;51.796;10.952;2022-08-27T14:05:04;13.70;;;9.57;;
10882;SDS011;5494;51.796;10.952;2022-08-27T14:07:38;10.00;;;9.00;;
10882;SDS011;5494;51.796;10.952;2022-08-27T14:13:03;18.23;;;10.83;;
10882;SDS011;5494;51.796;10.952;2022-08-27T14:15:37;13.13;;;9.40;;
10882;SDS011;5494;51.796;10.952;2022-08-27T14:18:20;11.50;;;9.57;;
10882;SDS011;5494;51.796;10.952;2022-08-27T14:21:12;13.00;;;9.03;;
10882;SDS011;5494;51.796;10.952;2022-08-27T14:23:41;12.17;;;8.83;;
10882;SDS011;5494;51.796;10.952;2022-08-27T14:26:11;14.93;;;9.30;;
10882;SDS011;5494;51.796;10.952;2022-08-27T14:28:40;12.03;;;8.30;;
10882;SDS011;5494;51.796;10.952;2022-08-27T14:31:09;11.60;;;8.90;;
10882;SDS011;5494;51.796;10.952;2022-08-27T14:33:40;13.33;;;9.07;;
10882;SDS011;5494;51.796;10.952;2022-08-27T14:36:08;11.93;;;8.67;;
10882;SDS011;5494;51.796;10.952;2022-08-27T14:38:38;10.03;;;8.43;;
10882;SDS011;5494;51.796;10.952;2022-08-27T14:41:12;11.03;;;8.67;;
10882;SDS011;5494;51.796;10.952;2022-08-27T14:43:44;14.03;;;8.60;;
10882;SDS011;5494;51.796;10.952;2022-08-27T14:46:18;8.70;;;7.83;;
10882;SDS011;5494;51.796;10.952;2022-08-27T14:48:54;10.37;;;7.73;;
10882;SDS011;5494;51.796;10.952;2022-08-27T14:51:27;9.07;;;7.83;;
10882;SDS011;5494;51.796;10.952;2022-08-27T14:53:59;9.87;;;7.40;;
10882;SDS011;5494;51.796;10.952;2022-08-27T14:56:28;8.63;;;7.30;;
10882;SDS011;5494;51.796;10.952;2022-08-27T14:58:56;8.30;;;6.70;;
10882;SDS011;5494;51.796;10.952;2022-08-27T15:01:26;11.87;;;7.47;;
10882;SDS011;5494;51.796;10.952;2022-08-27T15:03:56;9.90;;;7.53;;
10882;SDS011;5494;51.796;10.952;2022-08-27T15:06:25;8.50;;;7.00;;
10882;SDS011;5494;51.796;10.952;2022-08-27T15:08:53;11.37;;;7.80;;